Webcam

2018/11/21 15:20 EBBR 211520Z 05005KT 7000 NSC 06/03 Q1016 NOSIG

Webcam

--- Refresh now ---